Time,TemperatureF,DewpointF,PressureIn,WindDirection,WindDirectionDegrees,WindSpeedMPH,WindSpeedGustMPH,Humidity,HourlyPrecipIn,Conditions,Clouds,dailyrainin,SoftwareType,DateUTC
2013-03-25 00:11:00,21.8,19.0,29.53,ENE,63,9.0,-999.0,90,-99.99,,,0.00,weatherlink.com 1.10,2013-03-25 04:11:00,
2013-03-25 00:26:00,21.7,19.0,29.54,South,171,4.0,-999.0,90,-99.99,,,0.00,weatherlink.com 1.10,2013-03-25 04:26:00,
2013-03-25 00:56:00,21.0,19.0,29.55,South,172,6.0,-999.0,91,-99.99,,,0.00,weatherlink.com 1.10,2013-03-25 04:56:00,
2013-03-25 01:11:00,20.8,19.0,29.55,South,185,2.0,-999.0,91,-99.99,,,0.00,weatherlink.com 1.10,2013-03-25 05:11:00,
2013-03-25 01:26:00,20.8,19.0,29.56,SSE,151,6.0,-999.0,91,-99.99,,,0.00,weatherlink.com 1.10,2013-03-25 05:26:00,
2013-03-25 01:41:00,20.6,18.0,29.55,South,175,6.0,-999.0,91,-99.99,,,0.00,weatherlink.com 1.10,2013-03-25 05:41:00,
2013-03-25 01:56:00,20.5,18.0,29.55,SSE,152,5.0,-999.0,91,-99.99,,,0.00,weatherlink.com 1.10,2013-03-25 05:56:00,
2013-03-25 02:11:00,20.6,18.0,29.55,SSE,161,4.0,-999.0,91,-99.99,,,0.00,weatherlink.com 1.10,2013-03-25 06:11:00,
2013-03-25 02:26:00,20.7,19.0,29.54,South,190,9.0,-999.0,91,-99.99,,,0.00,weatherlink.com 1.10,2013-03-25 06:26:00,
2013-03-25 02:41:00,20.8,19.0,29.54,SW,222,9.0,-999.0,91,-99.99,,,0.00,weatherlink.com 1.10,2013-03-25 06:41:00,
2013-03-25 02:56:00,20.7,19.0,29.53,SE,132,3.0,-999.0,91,-99.99,,,0.00,weatherlink.com 1.10,2013-03-25 06:56:00,
2013-03-25 03:11:00,20.6,18.0,29.53,SSE,155,7.0,-999.0,91,-99.99,,,0.00,weatherlink.com 1.10,2013-03-25 07:11:00,
2013-03-25 03:41:00,20.4,18.0,29.51,SE,131,2.0,-999.0,91,-99.99,,,0.00,weatherlink.com 1.10,2013-03-25 07:41:00,
2013-03-25 03:56:00,20.3,18.0,29.51,ENE,77,4.0,-999.0,91,-99.99,,,0.00,weatherlink.com 1.10,2013-03-25 07:56:00,
2013-03-25 04:11:00,20.3,18.0,29.51,East,101,1.0,-999.0,91,-99.99,,,0.00,weatherlink.com 1.10,2013-03-25 08:11:00,
2013-03-25 04:26:00,20.3,18.0,29.52,SSW,197,0.0,-999.0,91,-99.99,,,0.00,weatherlink.com 1.10,2013-03-25 08:26:00,
2013-03-25 04:41:00,20.5,18.0,29.52,SSE,161,4.0,-999.0,91,-99.99,,,0.00,weatherlink.com 1.10,2013-03-25 08:41:00,
2013-03-25 04:56:00,20.3,18.0,29.51,South,186,4.0,-999.0,91,-99.99,,,0.00,weatherlink.com 1.10,2013-03-25 08:56:00,
2013-03-25 05:11:00,20.4,18.0,29.51,SSW,206,0.0,-999.0,91,-99.99,,,0.00,weatherlink.com 1.10,2013-03-25 09:11:00,
2013-03-25 05:26:00,21.0,19.0,29.51,SE,142,0.0,-999.0,90,-99.99,,,0.00,weatherlink.com 1.10,2013-03-25 09:26:00,
2013-03-25 05:41:00,21.2,19.0,29.51,SSW,207,9.0,-999.0,90,-99.99,,,0.00,weatherlink.com 1.10,2013-03-25 09:41:00,
2013-03-25 05:56:00,20.8,19.0,29.51,South,188,5.0,-999.0,91,-99.99,,,0.00,weatherlink.com 1.10,2013-03-25 09:56:00,
2013-03-25 06:11:00,21.3,19.0,29.51,SSW,212,8.0,-999.0,90,-99.99,,,0.00,weatherlink.com 1.10,2013-03-25 10:11:00,
2013-03-25 06:26:00,21.6,19.0,29.51,SW,221,4.0,-999.0,89,-99.99,,,0.00,weatherlink.com 1.10,2013-03-25 10:26:00,
2013-03-25 06:41:00,21.6,19.0,29.50,SW,233,6.0,-999.0,90,-99.99,,,0.00,weatherlink.com 1.10,2013-03-25 10:41:00,
2013-03-25 06:56:00,21.5,19.0,29.50,SW,215,5.0,-999.0,90,-99.99,,,0.00,weatherlink.com 1.10,2013-03-25 10:56:00,
2013-03-25 07:11:00,21.6,19.0,29.50,SW,221,6.0,-999.0,90,-99.99,,,0.00,weatherlink.com 1.10,2013-03-25 11:11:00,
2013-03-25 07:26:00,21.7,19.0,29.50,SW,215,7.0,-999.0,90,-99.99,,,0.00,weatherlink.com 1.10,2013-03-25 11:26:00,
2013-03-25 07:41:00,22.2,20.0,29.50,SW,227,7.0,-999.0,89,-99.99,,,0.00,weatherlink.com 1.10,2013-03-25 11:41:00,
2013-03-25 07:56:00,22.6,20.0,29.50,WSW,240,7.0,-999.0,88,-99.99,,,0.00,weatherlink.com 1.10,2013-03-25 11:56:00,
2013-03-25 08:11:00,22.9,20.0,29.49,West,279,6.0,-999.0,88,-99.99,,,0.00,weatherlink.com 1.10,2013-03-25 12:11:00,
2013-03-25 08:26:00,22.9,20.0,29.50,WSW,238,2.0,-999.0,89,-99.99,,,0.00,weatherlink.com 1.10,2013-03-25 12:26:00,
2013-03-25 08:42:00,22.7,20.0,29.51,WSW,240,5.0,-999.0,89,-99.99,,,0.00,weatherlink.com 1.10,2013-03-25 12:42:00,
2013-03-25 08:57:00,22.2,20.0,29.51,SW,231,5.0,-999.0,90,-99.99,,,0.00,weatherlink.com 1.10,2013-03-25 12:57:00,
2013-03-25 09:12:00,21.7,19.0,29.51,SW,232,8.0,-999.0,90,-99.99,,,0.00,weatherlink.com 1.10,2013-03-25 13:12:00,
2013-03-25 09:27:00,21.1,19.0,29.51,West,269,5.0,-999.0,91,-99.99,,,0.00,weatherlink.com 1.10,2013-03-25 13:27:00,
2013-03-25 09:42:00,20.8,19.0,29.51,West,259,10.0,-999.0,91,-99.99,,,0.00,weatherlink.com 1.10,2013-03-25 13:42:00,
2013-03-25 09:57:00,20.9,19.0,29.51,SW,236,8.0,-999.0,91,-99.99,,,0.00,weatherlink.com 1.10,2013-03-25 13:57:00,
2013-03-25 10:12:00,21.0,19.0,29.51,WSW,240,12.0,-999.0,91,-99.99,,,0.00,weatherlink.com 1.10,2013-03-25 14:12:00,
2013-03-25 10:27:00,21.6,20.0,29.52,ENE,64,0.0,-999.0,94,-99.99,,,0.00,weatherlink.com 1.10,2013-03-25 14:27:00,
2013-03-25 10:42:00,21.1,19.0,29.52,East,84,0.0,-999.0,93,-99.99,,,0.00,weatherlink.com 1.10,2013-03-25 14:42:00,
2013-03-25 10:57:00,20.9,20.0,29.52,East,88,0.0,-999.0,94,-99.99,,,0.00,weatherlink.com 1.10,2013-03-25 14:57:00,
2013-03-25 11:12:00,20.9,20.0,29.53,East,84,0.0,-999.0,94,-99.99,,,0.00,weatherlink.com 1.10,2013-03-25 15:12:00,
2013-03-25 11:27:00,21.0,20.0,29.53,ENE,74,0.0,-999.0,94,-99.99,,,0.00,weatherlink.com 1.10,2013-03-25 15:27:00,
2013-03-25 11:42:00,21.3,20.0,29.52,NW,319,0.0,-999.0,94,-99.99,,,0.00,weatherlink.com 1.10,2013-03-25 15:42:00,
2013-03-25 11:57:00,21.1,20.0,29.53,ESE,107,0.0,-999.0,94,-99.99,,,0.00,weatherlink.com 1.10,2013-03-25 15:57:00,
2013-03-25 12:12:00,21.2,20.0,29.54,East,80,0.0,-999.0,94,-99.99,,,0.00,weatherlink.com 1.10,2013-03-25 16:12:00,
2013-03-25 12:27:00,20.4,18.0,29.53,WSW,243,7.0,-999.0,91,-99.99,,,0.00,weatherlink.com 1.10,2013-03-25 16:27:00,
2013-03-25 12:42:00,21.6,20.0,29.54,ENE,67,3.0,-999.0,94,-99.99,,,0.00,weatherlink.com 1.10,2013-03-25 16:42:00,
2013-03-25 12:57:00,21.9,21.0,29.54,East,91,1.0,-999.0,94,-99.99,,,0.00,weatherlink.com 1.10,2013-03-25 16:57:00,
2013-03-25 13:12:00,22.4,21.0,29.54,ENE,74,0.0,-999.0,94,-99.99,,,0.00,weatherlink.com 1.10,2013-03-25 17:12:00,
2013-03-25 13:27:00,22.6,21.0,29.54,East,89,0.0,-999.0,94,-99.99,,,0.00,weatherlink.com 1.10,2013-03-25 17:27:00,
2013-03-25 13:42:00,22.2,21.0,29.54,ENE,72,2.0,-999.0,93,-99.99,,,0.00,weatherlink.com 1.10,2013-03-25 17:42:00,
2013-03-25 13:57:00,21.9,20.0,29.55,ENE,71,0.0,-999.0,93,-99.99,,,0.00,weatherlink.com 1.10,2013-03-25 17:57:00,
2013-03-25 14:12:00,22.0,21.0,29.55,East,82,0.0,-999.0,94,-99.99,,,0.00,weatherlink.com 1.10,2013-03-25 18:12:00,
2013-03-25 14:27:00,22.0,20.0,29.55,East,89,1.0,-999.0,93,-99.99,,,0.00,weatherlink.com 1.10,2013-03-25 18:27:00,
2013-03-25 14:42:00,21.8,20.0,29.56,ENE,74,0.0,-999.0,93,-99.99,,,0.00,weatherlink.com 1.10,2013-03-25 18:42:00,
2013-03-25 14:57:00,22.0,20.0,29.56,East,86,1.0,-999.0,93,-99.99,,,0.00,weatherlink.com 1.10,2013-03-25 18:57:00,
2013-03-25 15:12:00,22.0,20.0,29.56,East,79,0.0,-999.0,93,-99.99,,,0.00,weatherlink.com 1.10,2013-03-25 19:12:00,
2013-03-25 15:42:00,21.8,20.0,29.57,East,92,0.0,-999.0,93,-99.99,,,0.00,weatherlink.com 1.10,2013-03-25 19:42:00,
2013-03-25 15:57:00,21.7,20.0,29.57,WSW,244,1.0,-999.0,93,-99.99,,,0.00,weatherlink.com 1.10,2013-03-25 19:57:00,
2013-03-25 16:27:00,20.3,18.0,29.59,SW,235,11.0,-999.0,91,-99.99,,,0.00,weatherlink.com 1.10,2013-03-25 20:27:00,
2013-03-25 16:42:00,20.4,18.0,29.58,WSW,253,12.0,-999.0,91,-99.99,,,0.00,weatherlink.com 1.10,2013-03-25 20:42:00,
2013-03-25 16:57:00,20.2,18.0,29.59,West,264,11.0,-999.0,91,-99.99,,,0.00,weatherlink.com 1.10,2013-03-25 20:57:00,
2013-03-25 17:12:00,20.5,18.0,29.60,SW,225,9.0,-999.0,91,-99.99,,,0.00,weatherlink.com 1.10,2013-03-25 21:12:00,
2013-03-25 17:27:00,20.3,18.0,29.61,SW,236,6.0,-999.0,91,-99.99,,,0.00,weatherlink.com 1.10,2013-03-25 21:27:00,
2013-03-25 17:42:00,20.0,18.0,29.62,WSW,250,15.0,-999.0,91,-99.99,,,0.00,weatherlink.com 1.10,2013-03-25 21:42:00,
2013-03-25 17:57:00,19.8,18.0,29.63,SW,236,6.0,-999.0,92,-99.99,,,0.00,weatherlink.com 1.10,2013-03-25 21:57:00,
2013-03-25 18:12:00,19.6,18.0,29.63,WSW,238,8.0,-999.0,92,-99.99,,,0.00,weatherlink.com 1.10,2013-03-25 22:12:00,
2013-03-25 18:27:00,19.3,17.0,29.64,SW,225,10.0,-999.0,92,-99.99,,,0.00,weatherlink.com 1.10,2013-03-25 22:27:00,
2013-03-25 18:42:00,19.2,17.0,29.65,SW,231,11.0,-999.0,92,-99.99,,,0.00,weatherlink.com 1.10,2013-03-25 22:42:00,
2013-03-25 18:57:00,19.1,17.0,29.66,West,275,8.0,-999.0,92,-99.99,,,0.00,weatherlink.com 1.10,2013-03-25 22:57:00,
2013-03-25 19:12:00,19.2,17.0,29.67,WSW,254,12.0,-999.0,92,-99.99,,,0.00,weatherlink.com 1.10,2013-03-25 23:12:00,
2013-03-25 19:27:00,19.2,17.0,29.68,SW,224,9.0,-999.0,92,-99.99,,,0.00,weatherlink.com 1.10,2013-03-25 23:27:00,
2013-03-25 19:42:00,19.2,17.0,29.68,SW,236,13.0,-999.0,92,-99.99,,,0.00,weatherlink.com 1.10,2013-03-25 23:42:00,
2013-03-25 19:58:00,19.2,17.0,29.69,West,260,18.0,-999.0,92,-99.99,,,0.00,weatherlink.com 1.10,2013-03-25 23:58:00,
2013-03-25 20:13:00,19.2,17.0,29.70,WNW,291,12.0,-999.0,92,-99.99,,,0.00,weatherlink.com 1.10,2013-03-26 00:13:00,
2013-03-25 20:28:00,19.2,17.0,29.70,WSW,244,16.0,-999.0,92,-99.99,,,0.00,weatherlink.com 1.10,2013-03-26 00:28:00,
2013-03-25 20:43:00,19.2,17.0,29.71,WSW,238,13.0,-999.0,92,-99.99,,,0.00,weatherlink.com 1.10,2013-03-26 00:43:00,
2013-03-25 20:58:00,19.3,17.0,29.71,SW,227,24.0,-999.0,92,-99.99,,,0.00,weatherlink.com 1.10,2013-03-26 00:58:00,
2013-03-25 21:13:00,19.3,17.0,29.73,SW,224,12.0,-999.0,91,-99.99,,,0.00,weatherlink.com 1.10,2013-03-26 01:13:00,
2013-03-25 21:28:00,19.4,18.0,29.73,WSW,253,13.0,-999.0,92,-99.99,,,0.00,weatherlink.com 1.10,2013-03-26 01:28:00,
2013-03-25 21:43:00,19.5,17.0,29.74,SW,231,9.0,-999.0,91,-99.99,,,0.00,weatherlink.com 1.10,2013-03-26 01:43:00,
2013-03-25 21:58:00,19.6,17.0,29.74,WSW,246,12.0,-999.0,91,-99.99,,,0.00,weatherlink.com 1.10,2013-03-26 01:58:00,
2013-03-25 22:13:00,19.7,18.0,29.75,WSW,244,9.0,-999.0,91,-99.99,,,0.00,weatherlink.com 1.10,2013-03-26 02:13:00,
2013-03-25 22:28:00,19.8,18.0,29.75,West,265,11.0,-999.0,91,-99.99,,,0.00,weatherlink.com 1.10,2013-03-26 02:28:00,
2013-03-25 22:43:00,19.8,18.0,29.75,West,262,12.0,-999.0,91,-99.99,,,0.00,weatherlink.com 1.10,2013-03-26 02:43:00,
2013-03-25 22:58:00,19.9,18.0,29.76,WSW,258,7.0,-999.0,91,-99.99,,,0.00,weatherlink.com 1.10,2013-03-26 02:58:00,
2013-03-25 23:13:00,19.9,18.0,29.76,West,262,8.0,-999.0,91,-99.99,,,0.00,weatherlink.com 1.10,2013-03-26 03:13:00,
2013-03-25 23:28:00,20.0,18.0,29.77,WSW,258,12.0,-999.0,91,-99.99,,,0.00,weatherlink.com 1.10,2013-03-26 03:28:00,
2013-03-25 23:43:00,20.1,18.0,29.77,WSW,248,8.0,-999.0,91,-99.99,,,0.00,weatherlink.com 1.10,2013-03-26 03:43:00,
2013-03-25 23:58:00,20.1,18.0,29.77,WSW,253,8.0,-999.0,91,-99.99,,,0.00,weatherlink.com 1.10,2013-03-26 03:58:00,